Station Historical Data
Daily Summary for April 11, 2012 Units:  Both    English   Metric
« Previous Day
Next Day »
Daily Weekly Monthly Yearly Custom
  High: Low: Average:
Temperature: 61.4 °F /  16.3 °C 35.1 °F /  1.7 °C 50.3 °F /  10.2 °C
Dew Point: 38.1 °F /  3.4 °C 20.6 °F /  -6.3 °C 31.2 °F /  -0.4 °C
Humidity: 91% 21% 52%
Wind Speed: 16.0mph /  25.7km/h - 3.9mph /  6.3km/h
Wind Gust: 20.0mph /  32.2km/h - -
Wind- - SW
Pressure: 30.17 in /  1021.6 hPa 30.06 in /  1017.8 hPa -
Precipitation: 0.00 in /  0 mm    
Historical Graphs
 
 
Tabular Data for April 11, 2012
Time Temperature Dew Point Pressure Wind Wind Speed Wind Gust Humidity Rainfall Rate (Hourly) Conditions
00:00 52.2 °F /  11.2 °C 34.6 °F /  1.4 °C 30.06in /  1017.8hPa NW 4.0mph /  6.4km/h 6.0mph /  9.7km/h 51% 0.00in /  0mm
00:03 52.2 °F /  11.2 °C 35.1 °F /  1.7 °C 30.06in /  1017.8hPa NNW 5.0mph /  8km/h 6.0mph /  9.7km/h 52% 0.00in /  0mm
00:05 52.2 °F /  11.2 °C 35.1 °F /  1.7 °C 30.06in /  1017.8hPa NNW 3.0mph /  4.8km/h 7.0mph /  11.3km/h 52% 0.00in /  0mm
00:10 52.1 °F /  11.2 °C 34.5 °F /  1.4 °C 30.06in /  1017.8hPa NW 5.0mph /  8km/h 6.0mph /  9.7km/h 51% 0.00in /  0mm
00:12 52.1 °F /  11.2 °C 34.5 °F /  1.4 °C 30.06in /  1017.8hPa NNW 3.0mph /  4.8km/h 5.0mph /  8km/h 51% 0.00in /  0mm
00:17 52.0 °F /  11.1 °C 34.5 °F /  1.4 °C 30.06in /  1017.8hPa NNW 4.0mph /  6.4km/h 6.0mph /  9.7km/h 51% 0.00in /  0mm
00:22 51.8 °F /  11 °C 33.8 °F /  1 °C 30.06in /  1017.8hPa NNW 4.0mph /  6.4km/h 6.0mph /  9.7km/h 50% 0.00in /  0mm
00:27 51.6 °F /  10.9 °C 34.1 °F /  1.2 °C 30.06in /  1017.8hPa NNW 3.0mph /  4.8km/h 6.0mph /  9.7km/h 51% 0.00in /  0mm
00:33 51.4 °F /  10.8 °C 33.9 °F /  1.1 °C 30.06in /  1017.8hPa NW 3.0mph /  4.8km/h 5.0mph /  8km/h 51% 0.00in /  0mm
00:38 51.1 °F /  10.6 °C 33.6 °F /  0.9 °C 30.07in /  1018.2hPa NNW 3.0mph /  4.8km/h 4.0mph /  6.4km/h 51% 0.00in /  0mm
00:43 51.0 °F /  10.6 °C 33.5 °F /  0.8 °C 30.07in /  1018.2hPa NW 2.0mph /  3.2km/h 4.0mph /  6.4km/h 51% 0.00in /  0mm
00:48 50.8 °F /  10.4 °C 33.3 °F /  0.7 °C 30.07in /  1018.2hPa NNE 3.0mph /  4.8km/h 4.0mph /  6.4km/h 51% 0.00in /  0mm
00:49 50.8 °F /  10.4 °C 33.3 °F /  0.7 °C 30.07in /  1018.2hPa North 2.0mph /  3.2km/h 4.0mph /  6.4km/h 51% 0.00in /  0mm
00:54 50.6 °F /  10.3 °C 33.6 °F /  0.9 °C 30.07in /  1018.2hPa NNE 2.0mph /  3.2km/h 4.0mph /  6.4km/h 52% 0.00in /  0mm
00:59 50.1 °F /  10.1 °C 33.7 °F /  0.9 °C 30.07in /  1018.2hPa NNE 1.0mph /  1.6km/h 2.0mph /  3.2km/h 53% 0.00in /  0mm
01:04 50.0 °F /  10 °C 33.6 °F /  0.9 °C 30.07in /  1018.2hPa North 4.0mph /  6.4km/h 4.0mph /  6.4km/h 53% 0.00in /  0mm
01:09 50.1 °F /  10.1 °C 33.7 °F /  0.9 °C 30.07in /  1018.2hPa NNE 3.0mph /  4.8km/h 4.0mph /  6.4km/h 53% 0.00in /  0mm
01:14 49.9 °F /  9.9 °C 33.0 °F /  0.6 °C 30.07in /  1018.2hPa NE 6.0mph /  9.7km/h 6.0mph /  9.7km/h 52% 0.00in /  0mm
01:19 49.9 °F /  9.9 °C 32.5 °F /  0.3 °C 30.07in /  1018.2hPa NNE 3.0mph /  4.8km/h 8.0mph /  12.9km/h 51% 0.00in /  0mm
01:24 49.8 °F /  9.9 °C 32.4 °F /  0.2 °C 30.08in /  1018.5hPa NE 3.0mph /  4.8km/h 5.0mph /  8km/h 51% 0.00in /  0mm
01:29 49.7 °F /  9.8 °C 32.3 °F /  0.2 °C 30.08in /  1018.5hPa NE 2.0mph /  3.2km/h 5.0mph /  8km/h 51% 0.00in /  0mm
01:34 49.5 °F /  9.7 °C 32.1 °F /  0.1 °C 30.08in /  1018.5hPa NE 3.0mph /  4.8km/h 4.0mph /  6.4km/h 51% 0.00in /  0mm
01:39 49.3 °F /  9.6 °C 32.0 °F /  0 °C 30.08in /  1018.5hPa NE 3.0mph /  4.8km/h 5.0mph /  8km/h 51% 0.00in /  0mm
01:44 49.0 °F /  9.4 °C 31.7 °F /  -0.2 °C 30.08in /  1018.5hPa NE 2.0mph /  3.2km/h 4.0mph /  6.4km/h 51% 0.00in /  0mm
01:50 48.9 °F /  9.4 °C 31.6 °F /  -0.2 °C 30.08in /  1018.5hPa NNE 1.0mph /  1.6km/h 4.0mph /  6.4km/h 51% 0.00in /  0mm
01:55 48.6 °F /  9.2 °C 31.3 °F /  -0.4 °C 30.08in /  1018.5hPa NE 2.0mph /  3.2km/h 4.0mph /  6.4km/h 51% 0.00in /  0mm
02:00 48.3 °F /  9.1 °C 31.5 °F /  -0.3 °C 30.08in /  1018.5hPa NE 1.0mph /  1.6km/h 3.0mph /  4.8km/h 52% 0.00in /  0mm
02:05 48.0 °F /  8.9 °C 31.7 °F /  -0.2 °C 30.08in /  1018.5hPa NE 1.0mph /  1.6km/h 2.0mph /  3.2km/h 53% 0.00in /  0mm
02:10 47.8 °F /  8.8 °C 31.5 °F /  -0.3 °C 30.08in /  1018.5hPa NNE 1.0mph /  1.6km/h 2.0mph /  3.2km/h 53% 0.00in /  0mm
02:15 47.5 °F /  8.6 °C 31.2 °F /  -0.4 °C 30.08in /  1018.5hPa Calm   1.0mph /  1.6km/h 53% 0.00in /  0mm
02:20 47.2 °F /  8.4 °C 31.4 °F /  -0.3 °C 30.08in /  1018.5hPa Calm   1.0mph /  1.6km/h 54% 0.00in /  0mm
02:25 46.8 °F /  8.2 °C 31.0 °F /  -0.6 °C 30.08in /  1018.5hPa Calm     54% 0.00in /  0mm
02:30 46.4 °F /  8 °C 31.1 °F /  -0.5 °C 30.08in /  1018.5hPa Calm   1.0mph /  1.6km/h 55% 0.00in /  0mm
02:35 45.8 °F /  7.7 °C 31.5 °F /  -0.3 °C 30.08in /  1018.5hPa Calm   1.0mph /  1.6km/h 57% 0.00in /  0mm
02:41 45.5 °F /  7.5 °C 31.6 °F /  -0.2 °C 30.08in /  1018.5hPa Calm     58% 0.00in /  0mm
02:46 45.1 °F /  7.3 °C 31.2 °F /  -0.4 °C 30.08in /  1018.5hPa NNE 1.0mph /  1.6km/h 1.0mph /  1.6km/h 58% 0.00in /  0mm
02:51 44.9 °F /  7.2 °C 31.5 °F /  -0.3 °C 30.08in /  1018.5hPa Calm     59% 0.00in /  0mm
02:53 44.8 °F /  7.1 °C 31.4 °F /  -0.3 °C 30.07in /  1018.2hPa Calm   1.0mph /  1.6km/h 59% 0.00in /  0mm
02:58 44.7 °F /  7.1 °C 31.3 °F /  -0.4 °C 30.07in /  1018.2hPa NNE 1.0mph /  1.6km/h 1.0mph /  1.6km/h 59% 0.00in /  0mm
03:03 44.8 °F /  7.1 °C 31.4 °F /  -0.3 °C 30.07in /  1018.2hPa NNE 1.0mph /  1.6km/h 1.0mph /  1.6km/h 59% 0.00in /  0mm
03:04 44.8 °F /  7.1 °C 31.4 °F /  -0.3 °C 30.07in /  1018.2hPa NNE 1.0mph /  1.6km/h 2.0mph /  3.2km/h 59% 0.00in /  0mm
03:09 44.9 °F /  7.2 °C 31.0 °F /  -0.6 °C 30.07in /  1018.2hPa NNE 1.0mph /  1.6km/h 2.0mph /  3.2km/h 58% 0.00in /  0mm
03:14 45.0 °F /  7.2 °C 31.1 °F /  -0.5 °C 30.07in /  1018.2hPa Calm   2.0mph /  3.2km/h 58% 0.00in /  0mm
03:19 44.9 °F /  7.2 °C 31.0 °F /  -0.6 °C 30.06in /  1017.8hPa NNE 1.0mph /  1.6km/h 2.0mph /  3.2km/h 58% 0.00in /  0mm
03:24 44.6 °F /  7 °C 31.6 °F /  -0.2 °C 30.07in /  1018.2hPa NNW 1.0mph /  1.6km/h 1.0mph /  1.6km/h 60% 0.00in /  0mm
03:29 44.2 °F /  6.8 °C 32.0 °F /  0 °C 30.07in /  1018.2hPa Calm   2.0mph /  3.2km/h 62% 0.00in /  0mm
03:34 43.6 °F /  6.4 °C 31.9 °F /  -0.1 °C 30.07in /  1018.2hPa Calm     63% 0.00in /  0mm
03:39 43.1 °F /  6.2 °C 31.8 °F /  -0.1 °C 30.07in /  1018.2hPa Calm     64% 0.00in /  0mm
03:44 42.7 °F /  5.9 °C 31.8 °F /  -0.1 °C 30.07in /  1018.2hPa Calm     65% 0.00in /  0mm
03:49 42.5 °F /  5.8 °C 31.6 °F /  -0.2 °C 30.07in /  1018.2hPa Calm     65% 0.00in /  0mm
03:50 42.5 °F /  5.8 °C 31.6 °F /  -0.2 °C 30.07in /  1018.2hPa Calm     65% 0.00in /  0mm
03:55 42.0 °F /  5.6 °C 31.1 °F /  -0.5 °C 30.07in /  1018.2hPa Calm     65% 0.00in /  0mm
04:00 41.2 °F /  5.1 °C 30.7 °F /  -0.7 °C 30.07in /  1018.2hPa Calm     66% 0.00in /  0mm
04:05 40.5 °F /  4.7 °C 30.4 °F /  -0.9 °C 30.07in /  1018.2hPa Calm     67% 0.00in /  0mm
04:10 40.3 °F /  4.6 °C 31.3 °F /  -0.4 °C 30.07in /  1018.2hPa Calm     70% 0.00in /  0mm
04:15 40.6 °F /  4.8 °C 32.0 °F /  0 °C 30.07in /  1018.2hPa Calm     71% 0.00in /  0mm
04:16 40.6 °F /  4.8 °C 32.0 °F /  0 °C 30.07in /  1018.2hPa Calm     71% 0.00in /  0mm
04:21 40.4 °F /  4.7 °C 32.1 °F /  0.1 °C 30.07in /  1018.2hPa Calm     72% 0.00in /  0mm
04:26 39.9 °F /  4.4 °C 33.0 °F /  0.6 °C 30.07in /  1018.2hPa Calm     76% 0.00in /  0mm
04:31 39.9 °F /  4.4 °C 33.9 °F /  1.1 °C 30.08in /  1018.5hPa Calm     79% 0.00in /  0mm
04:36 39.8 °F /  4.3 °C 32.9 °F /  0.5 °C 30.08in /  1018.5hPa NNW 1.0mph /  1.6km/h 1.0mph /  1.6km/h 76% 0.00in /  0mm
04:41 39.8 °F /  4.3 °C 32.5 °F /  0.3 °C 30.08in /  1018.5hPa NNW 1.0mph /  1.6km/h 1.0mph /  1.6km/h 75% 0.00in /  0mm
04:46 40.1 °F /  4.5 °C 32.5 °F /  0.3 °C 30.08in /  1018.5hPa Calm   1.0mph /  1.6km/h 74% 0.00in /  0mm
04:51 40.2 °F /  4.6 °C 32.6 °F /  0.3 °C 30.08in /  1018.5hPa Calm   1.0mph /  1.6km/h 74% 0.00in /  0mm
04:56 39.8 °F /  4.3 °C 31.9 °F /  -0.1 °C 30.08in /  1018.5hPa Calm     73% 0.00in /  0mm
05:01 39.1 °F /  3.9 °C 31.5 °F /  -0.3 °C 30.08in /  1018.5hPa Calm     74% 0.00in /  0mm
05:06 38.6 °F /  3.7 °C 31.7 °F /  -0.2 °C 30.08in /  1018.5hPa Calm     76% 0.00in /  0mm
05:12 38.4 °F /  3.6 °C 31.5 °F /  -0.3 °C 30.08in /  1018.5hPa Calm     76% 0.00in /  0mm
05:14 38.4 °F /  3.6 °C 31.5 °F /  -0.3 °C 30.08in /  1018.5hPa Calm     76% 0.00in /  0mm
05:19 39.0 °F /  3.9 °C 31.4 °F /  -0.3 °C 30.08in /  1018.5hPa Calm     74% 0.00in /  0mm
05:24 39.2 °F /  4 °C 31.6 °F /  -0.2 °C 30.08in /  1018.5hPa Calm   1.0mph /  1.6km/h 74% 0.00in /  0mm
05:29 38.9 °F /  3.8 °C 33.0 °F /  0.6 °C 30.08in /  1018.5hPa Calm   1.0mph /  1.6km/h 79% 0.00in /  0mm
05:34 38.7 °F /  3.7 °C 33.1 °F /  0.6 °C 30.08in /  1018.5hPa Calm     80% 0.00in /  0mm
05:39 38.8 °F /  3.8 °C 32.9 °F /  0.5 °C 30.08in /  1018.5hPa Calm     79% 0.00in /  0mm
05:44 38.9 °F /  3.8 °C 32.3 °F /  0.2 °C 30.08in /  1018.5hPa Calm     77% 0.00in /  0mm
05:49 38.8 °F /  3.8 °C 31.9 °F /  -0.1 °C 30.08in /  1018.5hPa Calm     76% 0.00in /  0mm
05:54 38.4 °F /  3.6 °C 33.1 °F /  0.6 °C 30.08in /  1018.5hPa Calm     81% 0.00in /  0mm
06:00 38.1 °F /  3.4 °C 33.7 °F /  0.9 °C 30.08in /  1018.5hPa Calm     84% 0.00in /  0mm
06:05 37.7 °F /  3.2 °C 33.0 °F /  0.6 °C 30.08in /  1018.5hPa Calm     83% 0.00in /  0mm
06:10 37.3 °F /  2.9 °C 32.3 °F /  0.2 °C 30.09in /  1018.8hPa Calm     82% 0.00in /  0mm
06:11 37.2 °F /  2.9 °C 32.2 °F /  0.1 °C 30.09in /  1018.8hPa Calm     82% 0.00in /  0mm
06:16 36.7 °F /  2.6 °C 31.7 °F /  -0.2 °C 30.09in /  1018.8hPa Calm     82% 0.00in /  0mm
06:21 36.6 °F /  2.6 °C 31.9 °F /  -0.1 °C 30.09in /  1018.8hPa Calm     83% 0.00in /  0mm
06:24 36.6 °F /  2.6 °C 31.9 °F /  -0.1 °C 30.09in /  1018.8hPa Calm     83% 0.00in /  0mm
06:29 36.3 °F /  2.4 °C 31.9 °F /  -0.1 °C 30.09in /  1018.8hPa Calm     84% 0.00in /  0mm
06:34 36.2 °F /  2.3 °C 33.0 °F /  0.6 °C 30.09in /  1018.8hPa Calm     88% 0.00in /  0mm
06:39 36.1 °F /  2.3 °C 32.9 °F /  0.5 °C 30.09in /  1018.8hPa Calm     88% 0.00in /  0mm
06:44 35.9 °F /  2.2 °C 33.0 °F /  0.6 °C 30.10in /  1019.2hPa Calm     89% 0.00in /  0mm
06:49 35.9 °F /  2.2 °C 33.5 °F /  0.8 °C 30.10in /  1019.2hPa Calm     91% 0.00in /  0mm
06:55 36.1 °F /  2.3 °C 33.7 °F /  0.9 °C 30.10in /  1019.2hPa Calm   1.0mph /  1.6km/h 91% 0.00in /  0mm
07:00 36.1 °F /  2.3 °C 33.5 °F /  0.8 °C 30.10in /  1019.2hPa Calm     90% 0.00in /  0mm
07:05 35.7 °F /  2.1 °C 32.8 °F /  0.4 °C 30.11in /  1019.5hPa Calm     89% 0.00in /  0mm
07:10 35.5 °F /  1.9 °C 32.6 °F /  0.3 °C 30.11in /  1019.5hPa Calm     89% 0.00in /  0mm
07:15 35.5 °F /  1.9 °C 32.9 °F /  0.5 °C 30.11in /  1019.5hPa Calm     90% 0.00in /  0mm
07:20 35.3 °F /  1.8 °C 32.7 °F /  0.4 °C 30.11in /  1019.5hPa Calm     90% 0.00in /  0mm
07:25 35.3 °F /  1.8 °C 32.9 °F /  0.5 °C 30.11in /  1019.5hPa Calm     91% 0.00in /  0mm
07:30 35.1 °F /  1.7 °C 32.5 °F /  0.3 °C 30.11in /  1019.5hPa Calm     90% 0.00in /  0mm
07:35 35.1 °F /  1.7 °C 32.7 °F /  0.4 °C 30.12in /  1019.9hPa West 1.0mph /  1.6km/h 1.0mph /  1.6km/h 91% 0.00in /  0mm
07:37 35.1 °F /  1.7 °C 32.7 °F /  0.4 °C 30.12in /  1019.9hPa Calm   1.0mph /  1.6km/h 91% 0.00in /  0mm
07:42 35.3 °F /  1.8 °C 32.9 °F /  0.5 °C 30.12in /  1019.9hPa SW 1.0mph /  1.6km/h 1.0mph /  1.6km/h 91% 0.00in /  0mm
07:47 35.5 °F /  1.9 °C 33.1 °F /  0.6 °C 30.12in /  1019.9hPa Calm   1.0mph /  1.6km/h 91% 0.00in /  0mm
07:52 35.7 °F /  2.1 °C 33.3 °F /  0.7 °C 30.12in /  1019.9hPa Calm     91% 0.00in /  0mm
07:57 35.9 °F /  2.2 °C 33.5 °F /  0.8 °C 30.12in /  1019.9hPa Calm     91% 0.00in /  0mm
08:02 36.5 °F /  2.5 °C 33.8 °F /  1 °C 30.13in /  1020.2hPa Calm     90% 0.00in /  0mm
08:07 37.1 °F /  2.8 °C 34.4 °F /  1.3 °C 30.13in /  1020.2hPa Calm     90% 0.00in /  0mm
08:12 37.8 °F /  3.2 °C 34.9 °F /  1.6 °C 30.13in /  1020.2hPa Calm     89% 0.00in /  0mm
08:17 38.8 °F /  3.8 °C 36.1 °F /  2.3 °C 30.13in /  1020.2hPa Calm     90% 0.00in /  0mm
08:22 40.4 °F /  4.7 °C 37.4 °F /  3 °C 30.13in /  1020.2hPa Calm     89% 0.00in /  0mm
08:27 41.1 °F /  5.1 °C 36.9 °F /  2.7 °C 30.13in /  1020.2hPa Calm     85% 0.00in /  0mm
08:33 41.2 °F /  5.1 °C 37.3 °F /  2.9 °C 30.13in /  1020.2hPa Calm     86% 0.00in /  0mm
08:38 41.7 °F /  5.4 °C 37.8 °F /  3.2 °C 30.13in /  1020.2hPa Calm     86% 0.00in /  0mm
08:43 42.5 °F /  5.8 °C 38.0 °F /  3.3 °C 30.13in /  1020.2hPa Calm   1.0mph /  1.6km/h 84% 0.00in /  0mm
08:48 43.2 °F /  6.2 °C 38.1 °F /  3.4 °C 30.13in /  1020.2hPa SW 1.0mph /  1.6km/h 1.0mph /  1.6km/h 82% 0.00in /  0mm
08:53 43.8 °F /  6.6 °C 38.0 °F /  3.3 °C 30.14in /  1020.5hPa SW 1.0mph /  1.6km/h 2.0mph /  3.2km/h 80% 0.00in /  0mm
08:58 44.3 °F /  6.8 °C 37.6 °F /  3.1 °C 30.14in /  1020.5hPa WSW 2.0mph /  3.2km/h 2.0mph /  3.2km/h 77% 0.00in /  0mm
09:03 44.7 °F /  7.1 °C 36.9 °F /  2.7 °C 30.14in /  1020.5hPa SW 2.0mph /  3.2km/h 3.0mph /  4.8km/h 74% 0.00in /  0mm
09:08 45.4 °F /  7.4 °C 37.6 °F /  3.1 °C 30.14in /  1020.5hPa Calm   2.0mph /  3.2km/h 74% 0.00in /  0mm
09:13 46.1 °F /  7.8 °C 37.2 °F /  2.9 °C 30.14in /  1020.5hPa West 2.0mph /  3.2km/h 3.0mph /  4.8km/h 71% 0.00in /  0mm
09:18 46.7 °F /  8.2 °C 36.7 °F /  2.6 °C 30.14in /  1020.5hPa West 1.0mph /  1.6km/h 3.0mph /  4.8km/h 68% 0.00in /  0mm
09:23 47.3 °F /  8.5 °C 36.5 °F /  2.5 °C 30.15in /  1020.9hPa WNW 2.0mph /  3.2km/h 3.0mph /  4.8km/h 66% 0.00in /  0mm
09:28 47.9 °F /  8.8 °C 36.7 °F /  2.6 °C 30.15in /  1020.9hPa WNW 3.0mph /  4.8km/h 4.0mph /  6.4km/h 65% 0.00in /  0mm
09:33 48.5 °F /  9.2 °C 36.9 °F /  2.7 °C 30.15in /  1020.9hPa West 3.0mph /  4.8km/h 4.0mph /  6.4km/h 64% 0.00in /  0mm
09:38 49.1 °F /  9.5 °C 37.5 °F /  3.1 °C 30.15in /  1020.9hPa NW 2.0mph /  3.2km/h 5.0mph /  8km/h 64% 0.00in /  0mm
09:43 49.8 °F /  9.9 °C 36.5 °F /  2.5 °C 30.15in /  1020.9hPa WNW 3.0mph /  4.8km/h 5.0mph /  8km/h 60% 0.00in /  0mm
09:49 50.5 °F /  10.3 °C 36.3 °F /  2.4 °C 30.15in /  1020.9hPa NNW 2.0mph /  3.2km/h 4.0mph /  6.4km/h 58% 0.00in /  0mm
09:54 51.1 °F /  10.6 °C 36.8 °F /  2.7 °C 30.15in /  1020.9hPa WNW 7.0mph /  11.3km/h 7.0mph /  11.3km/h 58% 0.00in /  0mm
09:59 51.8 °F /  11 °C 34.8 °F /  1.6 °C 30.15in /  1020.9hPa NW 4.0mph /  6.4km/h 11.0mph /  17.7km/h 52% 0.00in /  0mm
10:04 52.2 °F /  11.2 °C 33.6 °F /  0.9 °C 30.15in /  1020.9hPa NNW 10.0mph /  16.1km/h 11.0mph /  17.7km/h 49% 0.00in /  0mm
10:09 52.3 °F /  11.3 °C 33.2 °F /  0.7 °C 30.15in /  1020.9hPa NW 7.0mph /  11.3km/h 10.0mph /  16.1km/h 48% 0.00in /  0mm
10:14 52.4 °F /  11.3 °C 34.8 °F /  1.6 °C 30.15in /  1020.9hPa NW 4.0mph /  6.4km/h 12.0mph /  19.3km/h 51% 0.00in /  0mm
10:19 52.5 °F /  11.4 °C 34.4 °F /  1.3 °C 30.16in /  1021.2hPa North 6.0mph /  9.7km/h 16.0mph /  25.7km/h 50% 0.00in /  0mm
10:24 52.6 °F /  11.4 °C 33.5 °F /  0.8 °C 30.15in /  1020.9hPa NNW 8.0mph /  12.9km/h 12.0mph /  19.3km/h 48% 0.00in /  0mm
10:29 52.9 °F /  11.6 °C 33.8 °F /  1 °C 30.16in /  1021.2hPa NW 5.0mph /  8km/h 9.0mph /  14.5km/h 48% 0.00in /  0mm
10:34 53.2 °F /  11.8 °C 32.4 °F /  0.2 °C 30.15in /  1020.9hPa NNW 8.0mph /  12.9km/h 10.0mph /  16.1km/h 45% 0.00in /  0mm
10:39 53.7 °F /  12.1 °C 33.4 °F /  0.8 °C 30.16in /  1021.2hPa North 6.0mph /  9.7km/h 10.0mph /  16.1km/h 46% 0.00in /  0mm
10:44 54.4 °F /  12.4 °C 36.2 °F /  2.3 °C 30.15in /  1020.9hPa WNW 5.0mph /  8km/h 6.0mph /  9.7km/h 50% 0.00in /  0mm
10:49 54.4 °F /  12.4 °C 34.1 °F /  1.2 °C 30.16in /  1021.2hPa WNW 3.0mph /  4.8km/h 7.0mph /  11.3km/h 46% 0.00in /  0mm
10:55 54.7 °F /  12.6 °C 32.7 °F /  0.4 °C 30.16in /  1021.2hPa NW 5.0mph /  8km/h 10.0mph /  16.1km/h 43% 0.00in /  0mm
11:00 55.0 °F /  12.8 °C 31.8 °F /  -0.1 °C 30.16in /  1021.2hPa NW 5.0mph /  8km/h 11.0mph /  17.7km/h 41% 0.00in /  0mm
11:01 55.0 °F /  12.8 °C 32.9 °F /  0.5 °C 30.16in /  1021.2hPa NW 7.0mph /  11.3km/h 11.0mph /  17.7km/h 43% 0.00in /  0mm
11:06 55.1 °F /  12.8 °C 31.8 °F /  -0.1 °C 30.16in /  1021.2hPa NW 8.0mph /  12.9km/h 11.0mph /  17.7km/h 41% 0.00in /  0mm
11:11 55.5 °F /  13.1 °C 32.8 °F /  0.4 °C 30.17in /  1021.6hPa NNW 12.0mph /  19.3km/h 12.0mph /  19.3km/h 42% 0.00in /  0mm
11:16 55.6 °F /  13.1 °C 31.7 °F /  -0.2 °C 30.17in /  1021.6hPa NNW 7.0mph /  11.3km/h 11.0mph /  17.7km/h 40% 0.00in /  0mm
11:22 55.7 °F /  13.2 °C 31.8 °F /  -0.1 °C 30.17in /  1021.6hPa NNW 8.0mph /  12.9km/h 13.0mph /  20.9km/h 40% 0.00in /  0mm
11:27 55.7 °F /  13.2 °C 31.1 °F /  -0.5 °C 30.17in /  1021.6hPa NNW 9.0mph /  14.5km/h 14.0mph /  22.5km/h 39% 0.00in /  0mm
11:33 56.0 °F /  13.3 °C 31.4 °F /  -0.3 °C 30.17in /  1021.6hPa WNW 7.0mph /  11.3km/h 15.0mph /  24.1km/h 39% 0.00in /  0mm
11:38 56.3 °F /  13.5 °C 33.5 °F /  0.8 °C 30.17in /  1021.6hPa NW 3.0mph /  4.8km/h 9.0mph /  14.5km/h 42% 0.00in /  0mm
11:43 56.5 °F /  13.6 °C 32.5 °F /  0.3 °C 30.17in /  1021.6hPa North 9.0mph /  14.5km/h 11.0mph /  17.7km/h 40% 0.00in /  0mm
11:48 56.2 °F /  13.4 °C 28.9 °F /  -1.7 °C 30.17in /  1021.6hPa North 9.0mph /  14.5km/h 13.0mph /  20.9km/h 35% 0.00in /  0mm
11:53 56.5 °F /  13.6 °C 30.6 °F /  -0.8 °C 30.17in /  1021.6hPa NNW 8.0mph /  12.9km/h 10.0mph /  16.1km/h 37% 0.00in /  0mm
11:54 56.6 °F /  13.7 °C 30.6 °F /  -0.8 °C 30.17in /  1021.6hPa NW 7.0mph /  11.3km/h 10.0mph /  16.1km/h 37% 0.00in /  0mm
11:59 56.6 °F /  13.7 °C 33.2 °F /  0.7 °C 30.17in /  1021.6hPa NNE 5.0mph /  8km/h 13.0mph /  20.9km/h 41% 0.00in /  0mm
12:04 56.6 °F /  13.7 °C 32.0 °F /  0 °C 30.17in /  1021.6hPa WNW 7.0mph /  11.3km/h 8.0mph /  12.9km/h 39% 0.00in /  0mm
12:06 56.7 °F /  13.7 °C 31.4 °F /  -0.3 °C 30.16in /  1021.2hPa NW 5.0mph /  8km/h 11.0mph /  17.7km/h 38% 0.00in /  0mm
12:11 56.8 °F /  13.8 °C 30.1 °F /  -1.1 °C 30.16in /  1021.2hPa NW 5.0mph /  8km/h 11.0mph /  17.7km/h 36% 0.00in /  0mm
12:12 56.8 °F /  13.8 °C 30.1 °F /  -1.1 °C 30.16in /  1021.2hPa NW 8.0mph /  12.9km/h 11.0mph /  17.7km/h 36% 0.00in /  0mm
12:14 56.9 °F /  13.8 °C 30.2 °F /  -1 °C 30.16in /  1021.2hPa WNW 7.0mph /  11.3km/h 10.0mph /  16.1km/h 36% 0.00in /  0mm
12:19 57.6 °F /  14.2 °C 30.9 °F /  -0.6 °C 30.16in /  1021.2hPa West 7.0mph /  11.3km/h 11.0mph /  17.7km/h 36% 0.00in /  0mm
12:24 57.6 °F /  14.2 °C 28.7 °F /  -1.8 °C 30.16in /  1021.2hPa WNW 7.0mph /  11.3km/h 15.0mph /  24.1km/h 33% 0.00in /  0mm
12:29 57.0 °F /  13.9 °C 28.9 °F /  -1.7 °C 30.16in /  1021.2hPa WNW 11.0mph /  17.7km/h 14.0mph /  22.5km/h 34% 0.00in /  0mm
12:34 57.0 °F /  13.9 °C 28.2 °F /  -2.1 °C 30.16in /  1021.2hPa NNW 4.0mph /  6.4km/h 11.0mph /  17.7km/h 33% 0.00in /  0mm
12:39 57.6 °F /  14.2 °C 29.5 °F /  -1.4 °C 30.16in /  1021.2hPa NNW 6.0mph /  9.7km/h 7.0mph /  11.3km/h 34% 0.00in /  0mm
12:44 58.1 °F /  14.5 °C 28.4 °F /  -2 °C 30.16in /  1021.2hPa NNW 9.0mph /  14.5km/h 11.0mph /  17.7km/h 32% 0.00in /  0mm
12:49 58.2 °F /  14.6 °C 28.5 °F /  -1.9 °C 30.16in /  1021.2hPa WNW 10.0mph /  16.1km/h 13.0mph /  20.9km/h 32% 0.00in /  0mm
12:54 58.3 °F /  14.6 °C 30.1 °F /  -1.1 °C 30.15in /  1020.9hPa WNW 4.0mph /  6.4km/h 10.0mph /  16.1km/h 34% 0.00in /  0mm
12:59 58.5 °F /  14.7 °C 29.5 °F /  -1.4 °C 30.15in /  1020.9hPa West 4.0mph /  6.4km/h 14.0mph /  22.5km/h 33% 0.00in /  0mm
13:04 59.0 °F /  15 °C 29.2 °F /  -1.6 °C 30.15in /  1020.9hPa NNW 12.0mph /  19.3km/h 14.0mph /  22.5km/h 32% 0.00in /  0mm
13:09 58.5 °F /  14.7 °C 25.5 °F /  -3.6 °C 30.15in /  1020.9hPa WNW 6.0mph /  9.7km/h 12.0mph /  19.3km/h 28% 0.00in /  0mm
13:14 58.9 °F /  14.9 °C 32.0 °F /  0 °C 30.15in /  1020.9hPa WNW 7.0mph /  11.3km/h 10.0mph /  16.1km/h 36% 0.00in /  0mm
13:19 59.3 °F /  15.2 °C 26.2 °F /  -3.2 °C 30.15in /  1020.9hPa West 6.0mph /  9.7km/h 10.0mph /  16.1km/h 28% 0.00in /  0mm
13:24 59.1 °F /  15.1 °C 28.5 °F /  -1.9 °C 30.15in /  1020.9hPa NW 10.0mph /  16.1km/h 16.0mph /  25.7km/h 31% 0.00in /  0mm
13:29 58.9 °F /  14.9 °C 27.5 °F /  -2.5 °C 30.15in /  1020.9hPa North 8.0mph /  12.9km/h 14.0mph /  22.5km/h 30% 0.00in /  0mm
13:35 59.0 °F /  15 °C 27.6 °F /  -2.4 °C 30.15in /  1020.9hPa NNW 10.0mph /  16.1km/h 18.0mph /  29km/h 30% 0.00in /  0mm
13:40 59.0 °F /  15 °C 29.2 °F /  -1.6 °C 30.15in /  1020.9hPa NW 5.0mph /  8km/h 15.0mph /  24.1km/h 32% 0.00in /  0mm
13:46 59.2 °F /  15.1 °C 30.1 °F /  -1.1 °C 30.14in /  1020.5hPa NNW 10.0mph /  16.1km/h 15.0mph /  24.1km/h 33% 0.00in /  0mm
13:51 59.3 °F /  15.2 °C 30.2 °F /  -1 °C 30.14in /  1020.5hPa NNE 10.0mph /  16.1km/h 20.0mph /  32.2km/h 33% 0.00in /  0mm
13:56 59.5 °F /  15.3 °C 28.9 °F /  -1.7 °C 30.14in /  1020.5hPa North 10.0mph /  16.1km/h 16.0mph /  25.7km/h 31% 0.00in /  0mm
14:01 59.8 °F /  15.4 °C 30.7 °F /  -0.7 °C 30.14in /  1020.5hPa WNW 11.0mph /  17.7km/h 11.0mph /  17.7km/h 33% 0.00in /  0mm
14:06 59.9 °F /  15.5 °C 27.6 °F /  -2.4 °C 30.14in /  1020.5hPa NW 9.0mph /  14.5km/h 14.0mph /  22.5km/h 29% 0.00in /  0mm
14:11 60.1 °F /  15.6 °C 25.1 °F /  -3.8 °C 30.14in /  1020.5hPa WNW 12.0mph /  19.3km/h 14.0mph /  22.5km/h 26% 0.00in /  0mm
14:16 60.1 °F /  15.6 °C 26.9 °F /  -2.8 °C 30.14in /  1020.5hPa NW 16.0mph /  25.7km/h 19.0mph /  30.6km/h 28% 0.00in /  0mm
14:21 59.7 °F /  15.4 °C 25.7 °F /  -3.5 °C 30.14in /  1020.5hPa WNW 7.0mph /  11.3km/h 13.0mph /  20.9km/h 27% 0.00in /  0mm
14:26 60.1 °F /  15.6 °C 27.8 °F /  -2.3 °C 30.14in /  1020.5hPa WNW 10.0mph /  16.1km/h 11.0mph /  17.7km/h 29% 0.00in /  0mm
14:32 59.9 °F /  15.5 °C 25.0 °F /  -3.9 °C 30.13in /  1020.2hPa West 9.0mph /  14.5km/h 11.0mph /  17.7km/h 26% 0.00in /  0mm
14:37 60.2 °F /  15.7 °C 27.0 °F /  -2.8 °C 30.13in /  1020.2hPa WNW 8.0mph /  12.9km/h 16.0mph /  25.7km/h 28% 0.00in /  0mm
14:42 60.2 °F /  15.7 °C 26.1 °F /  -3.3 °C 30.14in /  1020.5hPa NW 11.0mph /  17.7km/h 19.0mph /  30.6km/h 27% 0.00in /  0mm
14:47 60.2 °F /  15.7 °C 26.1 °F /  -3.3 °C 30.13in /  1020.2hPa West 10.0mph /  16.1km/h 11.0mph /  17.7km/h 27% 0.00in /  0mm
14:52 60.4 °F /  15.8 °C 25.4 °F /  -3.7 °C 30.14in /  1020.5hPa WNW 12.0mph /  19.3km/h 15.0mph /  24.1km/h 26% 0.00in /  0mm
14:57 60.3 °F /  15.7 °C 27.1 °F /  -2.7 °C 30.13in /  1020.2hPa WNW 11.0mph /  17.7km/h 12.0mph /  19.3km/h 28% 0.00in /  0mm
15:02 60.5 °F /  15.8 °C 24.5 °F /  -4.2 °C 30.13in /  1020.2hPa WNW 4.0mph /  6.4km/h 12.0mph /  19.3km/h 25% 0.00in /  0mm
15:03 60.5 °F /  15.8 °C 24.5 °F /  -4.2 °C 30.13in /  1020.2hPa NW 4.0mph /  6.4km/h 10.0mph /  16.1km/h 25% 0.00in /  0mm
15:08 60.9 °F /  16.1 °C 25.8 °F /  -3.4 °C 30.13in /  1020.2hPa WNW 13.0mph /  20.9km/h 15.0mph /  24.1km/h 26% 0.00in /  0mm
15:13 60.5 °F /  15.8 °C 24.5 °F /  -4.2 °C 30.13in /  1020.2hPa WNW 6.0mph /  9.7km/h 12.0mph /  19.3km/h 25% 0.00in /  0mm
15:18 60.9 °F /  16.1 °C 25.8 °F /  -3.4 °C 30.12in /  1019.9hPa NW 10.0mph /  16.1km/h 12.0mph /  19.3km/h 26% 0.00in /  0mm
15:23 60.7 °F /  15.9 °C 24.7 °F /  -4.1 °C 30.13in /  1020.2hPa WNW 12.0mph /  19.3km/h 15.0mph /  24.1km/h 25% 0.00in /  0mm
15:29 60.6 °F /  15.9 °C 26.5 °F /  -3.1 °C 30.13in /  1020.2hPa NW 5.0mph /  8km/h 11.0mph /  17.7km/h 27% 0.00in /  0mm
15:34 60.7 °F /  15.9 °C 25.6 °F /  -3.6 °C 30.13in /  1020.2hPa NNW 6.0mph /  9.7km/h 15.0mph /  24.1km/h 26% 0.00in /  0mm
15:39 60.4 °F /  15.8 °C 25.4 °F /  -3.7 °C 30.13in /  1020.2hPa NW 5.0mph /  8km/h 12.0mph /  19.3km/h 26% 0.00in /  0mm
15:44 60.9 °F /  16.1 °C 26.7 °F /  -2.9 °C 30.12in /  1019.9hPa NW 4.0mph /  6.4km/h 8.0mph /  12.9km/h 27% 0.00in /  0mm
15:49 60.8 °F /  16 °C 20.6 °F /  -6.3 °C 30.12in /  1019.9hPa NW 6.0mph /  9.7km/h 14.0mph /  22.5km/h 21% 0.00in /  0mm
15:54 61.0 °F /  16.1 °C 21.9 °F /  -5.6 °C 30.12in /  1019.9hPa WNW 8.0mph /  12.9km/h 13.0mph /  20.9km/h 22% 0.00in /  0mm
15:59 60.9 °F /  16.1 °C 25.8 °F /  -3.4 °C 30.12in /  1019.9hPa WNW 7.0mph /  11.3km/h 12.0mph /  19.3km/h 26% 0.00in /  0mm
16:04 60.9 °F /  16.1 °C 25.8 °F /  -3.4 °C 30.12in /  1019.9hPa WNW 6.0mph /  9.7km/h 17.0mph /  27.4km/h 26% 0.00in /  0mm
16:09 60.6 °F /  15.9 °C 26.5 °F /  -3.1 °C 30.12in /  1019.9hPa WNW 6.0mph /  9.7km/h 12.0mph /  19.3km/h 27% 0.00in /  0mm
16:14 60.7 °F /  15.9 °C 26.5 °F /  -3.1 °C 30.12in /  1019.9hPa NNW 7.0mph /  11.3km/h 7.0mph /  11.3km/h 27% 0.00in /  0mm
16:19 60.8 °F /  16 °C 28.4 °F /  -2 °C 30.12in /  1019.9hPa WNW 7.0mph /  11.3km/h 11.0mph /  17.7km/h 29% 0.00in /  0mm
16:24 60.9 °F /  16.1 °C 25.8 °F /  -3.4 °C 30.12in /  1019.9hPa NW 2.0mph /  3.2km/h 9.0mph /  14.5km/h 26% 0.00in /  0mm
16:29 61.4 °F /  16.3 °C 28.0 °F /  -2.2 °C 30.12in /  1019.9hPa NNW 7.0mph /  11.3km/h 11.0mph /  17.7km/h 28% 0.00in /  0mm
16:35 61.1 °F /  16.2 °C 27.8 °F /  -2.3 °C 30.12in /  1019.9hPa NW 9.0mph /  14.5km/h 11.0mph /  17.7km/h 28% 0.00in /  0mm
16:40 60.9 °F /  16.1 °C 27.6 °F /  -2.4 °C 30.12in /  1019.9hPa NW 3.0mph /  4.8km/h 15.0mph /  24.1km/h 28% 0.00in /  0mm
16:45 60.9 °F /  16.1 °C 26.7 °F /  -2.9 °C 30.12in /  1019.9hPa WNW 8.0mph /  12.9km/h 10.0mph /  16.1km/h 27% 0.00in /  0mm
16:47 60.9 °F /  16.1 °C 26.7 °F /  -2.9 °C 30.12in /  1019.9hPa West 8.0mph /  12.9km/h 10.0mph /  16.1km/h 27% 0.00in /  0mm
16:52 61.1 °F /  16.2 °C 26.0 °F /  -3.3 °C 30.12in /  1019.9hPa NNW 6.0mph /  9.7km/h 14.0mph /  22.5km/h 26% 0.00in /  0mm
16:57 61.1 °F /  16.2 °C 30.3 °F /  -0.9 °C 30.12in /  1019.9hPa NW 6.0mph /  9.7km/h 8.0mph /  12.9km/h 31% 0.00in /  0mm
17:02 61.3 °F /  16.3 °C 28.8 °F /  -1.8 °C 30.11in /  1019.5hPa NNW 6.0mph /  9.7km/h 10.0mph /  16.1km/h 29% 0.00in /  0mm
17:07 61.2 °F /  16.2 °C 31.9 °F /  -0.1 °C 30.11in /  1019.5hPa North 5.0mph /  8km/h 8.0mph /  12.9km/h 33% 0.00in /  0mm
17:13 61.1 °F /  16.2 °C 28.6 °F /  -1.9 °C 30.11in /  1019.5hPa NNW 9.0mph /  14.5km/h 12.0mph /  19.3km/h 29% 0.00in /  0mm
17:18 61.0 °F /  16.1 °C 31.7 °F /  -0.2 °C 30.11in /  1019.5hPa West 6.0mph /  9.7km/h 7.0mph /  11.3km/h 33% 0.00in /  0mm
17:23 60.9 °F /  16.1 °C 28.5 °F /  -1.9 °C 30.11in /  1019.5hPa NNE 6.0mph /  9.7km/h 11.0mph /  17.7km/h 29% 0.00in /  0mm
17:28 60.6 °F /  15.9 °C 29.0 °F /  -1.7 °C 30.11in /  1019.5hPa NNW 7.0mph /  11.3km/h 10.0mph /  16.1km/h 30% 0.00in /  0mm
17:33 60.5 °F /  15.8 °C 28.9 °F /  -1.7 °C 30.11in /  1019.5hPa NNE 9.0mph /  14.5km/h 15.0mph /  24.1km/h 30% 0.00in /  0mm
17:38 60.5 °F /  15.8 °C 27.3 °F /  -2.6 °C 30.11in /  1019.5hPa NNE 10.0mph /  16.1km/h 10.0mph /  16.1km/h 28% 0.00in /  0mm
17:43 60.5 °F /  15.8 °C 29.7 °F /  -1.3 °C 30.11in /  1019.5hPa North 9.0mph /  14.5km/h 9.0mph /  14.5km/h 31% 0.00in /  0mm
17:48 60.7 °F /  15.9 °C 28.3 °F /  -2.1 °C 30.11in /  1019.5hPa North 9.0mph /  14.5km/h 12.0mph /  19.3km/h 29% 0.00in /  0mm
17:53 60.4 °F /  15.8 °C 30.4 °F /  -0.9 °C 30.11in /  1019.5hPa NNW 10.0mph /  16.1km/h 10.0mph /  16.1km/h 32% 0.00in /  0mm
17:58 60.4 °F /  15.8 °C 28.9 °F /  -1.7 °C 30.11in /  1019.5hPa NW 6.0mph /  9.7km/h 7.0mph /  11.3km/h 30% 0.00in /  0mm
18:04 60.3 °F /  15.7 °C 27.1 °F /  -2.7 °C 30.11in /  1019.5hPa WNW 6.0mph /  9.7km/h 9.0mph /  14.5km/h 28% 0.00in /  0mm
18:09 60.5 °F /  15.8 °C 28.1 °F /  -2.2 °C 30.11in /  1019.5hPa NNW 3.0mph /  4.8km/h 6.0mph /  9.7km/h 29% 0.00in /  0mm
18:14 60.1 °F /  15.6 °C 26.9 °F /  -2.8 °C 30.11in /  1019.5hPa WNW 4.0mph /  6.4km/h 13.0mph /  20.9km/h 28% 0.00in /  0mm
18:19 59.9 °F /  15.5 °C 27.6 °F /  -2.4 °C 30.11in /  1019.5hPa NNW 8.0mph /  12.9km/h 12.0mph /  19.3km/h 29% 0.00in /  0mm
18:24 59.8 °F /  15.4 °C 26.6 °F /  -3 °C 30.11in /  1019.5hPa NW 3.0mph /  4.8km/h 9.0mph /  14.5km/h 28% 0.00in /  0mm
18:29 59.9 °F /  15.5 °C 28.4 °F /  -2 °C 30.11in /  1019.5hPa NW 6.0mph /  9.7km/h 9.0mph /  14.5km/h 30% 0.00in /  0mm
18:34 59.9 °F /  15.5 °C 29.2 °F /  -1.6 °C 30.11in /  1019.5hPa North 6.0mph /  9.7km/h 8.0mph /  12.9km/h 31% 0.00in /  0mm
18:39 59.7 °F /  15.4 °C 27.4 °F /  -2.6 °C 30.11in /  1019.5hPa NNW 4.0mph /  6.4km/h 7.0mph /  11.3km/h 29% 0.00in /  0mm
18:44 59.5 °F /  15.3 °C 28.9 °F /  -1.7 °C 30.11in /  1019.5hPa North 6.0mph /  9.7km/h 9.0mph /  14.5km/h 31% 0.00in /  0mm
18:49 59.3 °F /  15.2 °C 29.5 °F /  -1.4 °C 30.11in /  1019.5hPa NNW 3.0mph /  4.8km/h 8.0mph /  12.9km/h 32% 0.00in /  0mm
18:54 59.1 °F /  15.1 °C 28.5 °F /  -1.9 °C 30.11in /  1019.5hPa NNW 5.0mph /  8km/h 10.0mph /  16.1km/h 31% 0.00in /  0mm
18:59 59.0 °F /  15 °C 30.0 °F /  -1.1 °C 30.11in /  1019.5hPa NNE 4.0mph /  6.4km/h 6.0mph /  9.7km/h 33% 0.00in /  0mm
19:04 59.0 °F /  15 °C 30.0 °F /  -1.1 °C 30.11in /  1019.5hPa NW 4.0mph /  6.4km/h 7.0mph /  11.3km/h 33% 0.00in /  0mm
19:09 58.6 °F /  14.8 °C 28.9 °F /  -1.7 °C 30.11in /  1019.5hPa NNE 5.0mph /  8km/h 9.0mph /  14.5km/h 32% 0.00in /  0mm
19:14 58.3 °F /  14.6 °C 29.3 °F /  -1.5 °C 30.11in /  1019.5hPa NW 7.0mph /  11.3km/h 10.0mph /  16.1km/h 33% 0.00in /  0mm
19:19 58.1 °F /  14.5 °C 30.6 °F /  -0.8 °C 30.11in /  1019.5hPa North 6.0mph /  9.7km/h 6.0mph /  9.7km/h 35% 0.00in /  0mm
19:24 57.9 °F /  14.4 °C 29.7 °F /  -1.3 °C 30.11in /  1019.5hPa NNW 3.0mph /  4.8km/h 6.0mph /  9.7km/h 34% 0.00in /  0mm
19:29 57.6 °F /  14.2 °C 30.2 °F /  -1 °C 30.11in /  1019.5hPa North 2.0mph /  3.2km/h 6.0mph /  9.7km/h 35% 0.00in /  0mm
19:34 57.3 °F /  14.1 °C 29.9 °F /  -1.2 °C 30.11in /  1019.5hPa NNE 6.0mph /  9.7km/h 11.0mph /  17.7km/h 35% 0.00in /  0mm
19:39 56.9 °F /  13.8 °C 30.2 °F /  -1 °C 30.11in /  1019.5hPa NNE 5.0mph /  8km/h 9.0mph /  14.5km/h 36% 0.00in /  0mm
19:44 56.5 °F /  13.6 °C 30.6 °F /  -0.8 °C 30.12in /  1019.9hPa North 5.0mph /  8km/h 8.0mph /  12.9km/h 37% 0.00in /  0mm
19:49 56.1 °F /  13.4 °C 30.9 °F /  -0.6 °C 30.12in /  1019.9hPa North 8.0mph /  12.9km/h 8.0mph /  12.9km/h 38% 0.00in /  0mm
19:54 55.5 °F /  13.1 °C 31.0 °F /  -0.6 °C 30.12in /  1019.9hPa NNE 6.0mph /  9.7km/h 10.0mph /  16.1km/h 39% 0.00in /  0mm
19:59 54.9 °F /  12.7 °C 31.0 °F /  -0.6 °C 30.12in /  1019.9hPa NNE 6.0mph /  9.7km/h 12.0mph /  19.3km/h 40% 0.00in /  0mm
20:04 54.4 °F /  12.4 °C 31.8 °F /  -0.1 °C 30.12in /  1019.9hPa NNW 1.0mph /  1.6km/h 8.0mph /  12.9km/h 42% 0.00in /  0mm
20:09 53.7 °F /  12.1 °C 31.8 °F /  -0.1 °C 30.12in /  1019.9hPa NNW 5.0mph /  8km/h 6.0mph /  9.7km/h 43% 0.00in /  0mm
20:15 53.2 °F /  11.8 °C 31.9 °F /  -0.1 °C 30.12in /  1019.9hPa NNE 4.0mph /  6.4km/h 6.0mph /  9.7km/h 44% 0.00in /  0mm
20:20 52.6 °F /  11.4 °C 31.3 °F /  -0.4 °C 30.12in /  1019.9hPa NNW 5.0mph /  8km/h 8.0mph /  12.9km/h 44% 0.00in /  0mm
20:25 52.3 °F /  11.3 °C 31.6 °F /  -0.2 °C 30.12in /  1019.9hPa NNW 3.0mph /  4.8km/h 9.0mph /  14.5km/h 45% 0.00in /  0mm
20:30 51.8 °F /  11 °C 31.1 °F /  -0.5 °C 30.13in /  1020.2hPa NNE 5.0mph /  8km/h 6.0mph /  9.7km/h 45% 0.00in /  0mm
20:35 51.7 °F /  10.9 °C 31.1 °F /  -0.5 °C 30.13in /  1020.2hPa North 5.0mph /  8km/h 10.0mph /  16.1km/h 45% 0.00in /  0mm
20:41 51.4 °F /  10.8 °C 31.3 °F /  -0.4 °C 30.13in /  1020.2hPa NNW 5.0mph /  8km/h 9.0mph /  14.5km/h 46% 0.00in /  0mm
20:46 51.0 °F /  10.6 °C 31.0 °F /  -0.6 °C 30.13in /  1020.2hPa North 3.0mph /  4.8km/h 6.0mph /  9.7km/h 46% 0.00in /  0mm
20:51 50.7 °F /  10.4 °C 31.2 °F /  -0.4 °C 30.13in /  1020.2hPa NNE 1.0mph /  1.6km/h 5.0mph /  8km/h 47% 0.00in /  0mm
20:56 50.3 °F /  10.2 °C 31.4 °F /  -0.3 °C 30.14in /  1020.5hPa NNE 3.0mph /  4.8km/h 5.0mph /  8km/h 48% 0.00in /  0mm
21:01 49.9 °F /  9.9 °C 31.0 °F /  -0.6 °C 30.14in /  1020.5hPa NNW 4.0mph /  6.4km/h 7.0mph /  11.3km/h 48% 0.00in /  0mm
21:02 49.9 °F /  9.9 °C 31.0 °F /  -0.6 °C 30.14in /  1020.5hPa NNE 6.0mph /  9.7km/h 7.0mph /  11.3km/h 48% 0.00in /  0mm
21:07 49.7 °F /  9.8 °C 31.3 °F /  -0.4 °C 30.14in /  1020.5hPa North 3.0mph /  4.8km/h 6.0mph /  9.7km/h 49% 0.00in /  0mm
21:12 49.5 °F /  9.7 °C 31.1 °F /  -0.5 °C 30.15in /  1020.9hPa North 4.0mph /  6.4km/h 9.0mph /  14.5km/h 49% 0.00in /  0mm
21:16 49.4 °F /  9.7 °C 31.1 °F /  -0.5 °C 30.15in /  1020.9hPa North 3.0mph /  4.8km/h 7.0mph /  11.3km/h 49% 0.00in /  0mm
21:22 49.2 °F /  9.6 °C 31.4 °F /  -0.3 °C 30.15in /  1020.9hPa North 5.0mph /  8km/h 6.0mph /  9.7km/h 50% 0.00in /  0mm
21:27 48.9 °F /  9.4 °C 31.6 °F /  -0.2 °C 30.15in /  1020.9hPa North 4.0mph /  6.4km/h 6.0mph /  9.7km/h 51% 0.00in /  0mm
21:32 48.8 °F /  9.3 °C 31.5 °F /  -0.3 °C 30.15in /  1020.9hPa North 3.0mph /  4.8km/h 7.0mph /  11.3km/h 51% 0.00in /  0mm
21:37 48.6 °F /  9.2 °C 31.3 °F /  -0.4 °C 30.15in /  1020.9hPa North 4.0mph /  6.4km/h 8.0mph /  12.9km/h 51% 0.00in /  0mm
21:42 48.5 °F /  9.2 °C 31.7 °F /  -0.2 °C 30.15in /  1020.9hPa NE 5.0mph /  8km/h 7.0mph /  11.3km/h 52% 0.00in /  0mm
21:47 48.5 °F /  9.2 °C 31.7 °F /  -0.2 °C 30.15in /  1020.9hPa North 2.0mph /  3.2km/h 4.0mph /  6.4km/h 52% 0.00in /  0mm
21:48 48.4 °F /  9.1 °C 31.6 °F /  -0.2 °C 30.15in /  1020.9hPa NNW 7.0mph /  11.3km/h 7.0mph /  11.3km/h 52% 0.00in /  0mm
21:53 48.4 °F /  9.1 °C 31.6 °F /  -0.2 °C 30.15in /  1020.9hPa NNE 1.0mph /  1.6km/h 5.0mph /  8km/h 52% 0.00in /  0mm
21:58 48.1 °F /  8.9 °C 31.3 °F /  -0.4 °C 30.16in /  1021.2hPa North 5.0mph /  8km/h 6.0mph /  9.7km/h 52% 0.00in /  0mm
22:03 48.0 °F /  8.9 °C 31.7 °F /  -0.2 °C 30.15in /  1020.9hPa NE 3.0mph /  4.8km/h 6.0mph /  9.7km/h 53% 0.00in /  0mm
22:08 47.9 °F /  8.8 °C 31.6 °F /  -0.2 °C 30.16in /  1021.2hPa NNE 2.0mph /  3.2km/h 9.0mph /  14.5km/h 53% 0.00in /  0mm
22:13 47.7 °F /  8.7 °C 31.4 °F /  -0.3 °C 30.16in /  1021.2hPa NE 3.0mph /  4.8km/h 7.0mph /  11.3km/h 53% 0.00in /  0mm
22:18 47.5 °F /  8.6 °C 31.2 °F /  -0.4 °C 30.15in /  1020.9hPa NE 5.0mph /  8km/h 5.0mph /  8km/h 53% 0.00in /  0mm
22:23 47.4 °F /  8.6 °C 31.1 °F /  -0.5 °C 30.16in /  1021.2hPa NNE 3.0mph /  4.8km/h 5.0mph /  8km/h 53% 0.00in /  0mm
22:28 47.2 °F /  8.4 °C 31.4 °F /  -0.3 °C 30.16in /  1021.2hPa North 4.0mph /  6.4km/h 5.0mph /  8km/h 54% 0.00in /  0mm
22:33 47.0 °F /  8.3 °C 31.2 °F /  -0.4 °C 30.16in /  1021.2hPa North 3.0mph /  4.8km/h 6.0mph /  9.7km/h 54% 0.00in /  0mm
22:39 46.8 °F /  8.2 °C 31.0 °F /  -0.6 °C 30.16in /  1021.2hPa NNW 2.0mph /  3.2km/h 6.0mph /  9.7km/h 54% 0.00in /  0mm
22:44 46.8 °F /  8.2 °C 31.0 °F /  -0.6 °C 30.16in /  1021.2hPa NNE 3.0mph /  4.8km/h 6.0mph /  9.7km/h 54% 0.00in /  0mm
22:49 46.5 °F /  8.1 °C 31.2 °F /  -0.4 °C 30.16in /  1021.2hPa NNE 2.0mph /  3.2km/h 5.0mph /  8km/h 55% 0.00in /  0mm
22:54 46.4 °F /  8 °C 31.1 °F /  -0.5 °C 30.16in /  1021.2hPa North 6.0mph /  9.7km/h 8.0mph /  12.9km/h 55% 0.00in /  0mm
22:59 46.3 °F /  7.9 °C 31.0 °F /  -0.6 °C 30.16in /  1021.2hPa NE 3.0mph /  4.8km/h 5.0mph /  8km/h 55% 0.00in /  0mm
23:04 46.2 °F /  7.9 °C 30.9 °F /  -0.6 °C 30.16in /  1021.2hPa NNE 4.0mph /  6.4km/h 7.0mph /  11.3km/h 55% 0.00in /  0mm
23:09 46.2 °F /  7.9 °C 30.9 °F /  -0.6 °C 30.17in /  1021.6hPa NNE 4.0mph /  6.4km/h 6.0mph /  9.7km/h 55% 0.00in /  0mm
23:14 46.0 °F /  7.8 °C 31.2 °F /  -0.4 °C 30.17in /  1021.6hPa NE 5.0mph /  8km/h 7.0mph /  11.3km/h 56% 0.00in /  0mm
23:19 45.7 °F /  7.6 °C 30.9 °F /  -0.6 °C 30.17in /  1021.6hPa NE 7.0mph /  11.3km/h 9.0mph /  14.5km/h 56% 0.00in /  0mm
23:24 45.6 °F /  7.6 °C 30.8 °F /  -0.7 °C 30.17in /  1021.6hPa NE 3.0mph /  4.8km/h 7.0mph /  11.3km/h 56% 0.00in /  0mm
23:29 45.5 °F /  7.5 °C 30.7 °F /  -0.7 °C 30.17in /  1021.6hPa NNE 3.0mph /  4.8km/h 5.0mph /  8km/h 56% 0.00in /  0mm
23:34 45.3 °F /  7.4 °C 31.0 °F /  -0.6 °C 30.17in /  1021.6hPa North 3.0mph /  4.8km/h 6.0mph /  9.7km/h 57% 0.00in /  0mm
23:35 45.3 °F /  7.4 °C 31.0 °F /  -0.6 °C 30.17in /  1021.6hPa NNE 2.0mph /  3.2km/h 6.0mph /  9.7km/h 57% 0.00in /  0mm
23:40 45.1 °F /  7.3 °C 30.8 °F /  -0.7 °C 30.17in /  1021.6hPa NNE 2.0mph /  3.2km/h 5.0mph /  8km/h 57% 0.00in /  0mm
23:45 44.8 °F /  7.1 °C 30.5 °F /  -0.8 °C 30.17in /  1021.6hPa Calm   3.0mph /  4.8km/h 57% 0.00in /  0mm
23:50 44.5 °F /  6.9 °C 30.7 °F /  -0.7 °C 30.16in /  1021.2hPa Calm   2.0mph /  3.2km/h 58% 0.00in /  0mm
23:55 44.2 °F /  6.8 °C 30.8 °F /  -0.7 °C 30.17in /  1021.6hPa NNW 1.0mph /  1.6km/h 2.0mph /  3.2km/h 59% 0.00in /  0mm
Compliments of Weather Underground